Time;durP1;ratioP1;P1;durP2;ratioP2;P2;SDS_P1;SDS_P2;PMS_P1;PMS_P2;Temp;Humidity;BMP_temperature;BMP_pressure;BME280_temperature;BME280_humidity;BME280_pressure;Samples;Min_cycle;Max_cycle;Signal;HPM_P1;HPM_P2
2023/04/29 00:01:47;;;;;;;7.50;5.50;;;;;;;8.21;52.49;100658.19;105971;1282;60416;-93
2023/04/29 00:04:17;;;;;;;10.30;5.20;;;;;;;8.18;52.69;100654.89;105943;1282;74935;-95
2023/04/29 00:06:46;;;;;;;12.40;5.90;;;;;;;8.05;52.99;100653.96;105967;1282;74165;-95
2023/04/29 00:09:13;;;;;;;10.10;6.30;;;;;;;8.01;53.11;100656.96;105865;1282;72740;-93
2023/04/29 00:11:40;;;;;;;11.20;6.10;;;;;;;7.98;53.31;100656.53;105961;1281;60831;-95
2023/04/29 00:14:08;;;;;;;9.40;6.00;;;;;;;7.95;53.41;100655.16;106110;1282;60201;-94
2023/04/29 00:16:36;;;;;;;8.90;5.40;;;;;;;7.93;53.58;100651.40;105869;1282;75167;-95
2023/04/29 00:19:05;;;;;;;8.70;5.60;;;;;;;7.93;53.58;100651.64;105986;1282;72919;-95
2023/04/29 00:21:35;;;;;;;9.40;5.80;;;;;;;7.92;53.68;100648.87;106015;1281;72589;-94
2023/04/29 00:24:13;;;;;;;9.00;5.00;;;;;;;7.93;53.85;100648.94;106241;1282;59413;-94
2023/04/29 00:26:42;;;;;;;10.50;5.40;;;;;;;7.95;54.00;100653.29;106668;1281;60300;-95
2023/04/29 00:29:11;;;;;;;8.90;5.10;;;;;;;7.96;54.02;100654.85;106426;1281;71565;-94
2023/04/29 00:31:39;;;;;;;8.70;4.90;;;;;;;7.97;54.13;100653.81;106551;1285;72567;-94
2023/04/29 00:34:08;;;;;;;9.40;4.90;;;;;;;8.07;53.97;100649.63;106342;1280;70378;-95
2023/04/29 00:36:35;;;;;;;9.20;5.00;;;;;;;7.99;54.20;100652.78;106381;1281;62283;-95
2023/04/29 00:39:02;;;;;;;7.70;4.40;;;;;;;7.96;54.23;100654.69;106117;1281;60394;-94
2023/04/29 00:41:30;;;;;;;9.20;5.10;;;;;;;7.94;54.14;100653.21;106150;1281;73607;-94
2023/04/29 00:43:58;;;;;;;8.60;4.50;;;;;;;7.95;54.23;100651.69;105828;1282;72798;-94
2023/04/29 00:46:25;;;;;;;8.60;4.80;;;;;;;7.95;54.12;100653.55;106161;1281;71922;-93
2023/04/29 00:48:52;;;;;;;7.70;4.80;;;;;;;7.93;54.22;100652.04;106052;1282;59631;-94
2023/04/29 00:51:19;;;;;;;7.70;4.60;;;;;;;7.92;54.13;100652.16;106151;1282;61320;-95
2023/04/29 00:53:46;;;;;;;6.70;4.10;;;;;;;7.89;54.09;100652.75;106038;1281;73734;-95
2023/04/29 00:56:19;;;;;;;9.40;4.30;;;;;;;7.86;54.18;100655.98;106183;1281;72761;-96
2023/04/29 00:58:49;;;;;;;7.70;4.20;;;;;;;7.83;54.17;100661.02;106188;1281;72187;-94
2023/04/29 01:01:18;;;;;;;7.40;4.20;;;;;;;7.81;54.24;100662.81;106008;1282;60863;-94
2023/04/29 01:03:45;;;;;;;6.60;3.90;;;;;;;7.80;54.39;100664.15;105931;1285;60392;-94
2023/04/29 01:06:16;;;;;;;7.80;4.00;;;;;;;7.78;54.36;100659.19;105989;1282;72090;-92
2023/04/29 01:09:38;;;;;;;7.80;4.00;;;;;;;7.78;54.38;100665.14;106070;1281;72998;-94
2023/04/29 01:12:36;;;;;;;9.50;4.00;;;;;;;7.76;54.45;100665.05;105653;1285;72640;-93
2023/04/29 01:15:05;;;;;;;7.00;3.60;;;;;;;7.74;54.68;100667.89;106020;1282;61235;-94
2023/04/29 01:17:42;;;;;;;5.90;3.40;;;;;;;7.74;54.63;100667.83;105885;1281;61562;-93
2023/04/29 01:20:09;;;;;;;7.30;3.80;;;;;;;7.72;54.72;100667.89;105753;1282;75530;-94
2023/04/29 01:22:38;;;;;;;7.00;3.30;;;;;;;7.72;54.90;100672.23;105892;1282;73690;-94
2023/04/29 01:25:08;;;;;;;5.70;3.50;;;;;;;7.70;55.00;100670.52;105849;1282;73963;-93
2023/04/29 01:28:17;;;;;;;7.80;3.80;;;;;;;7.69;55.15;100675.15;105612;1282;60377;-94
2023/04/29 01:31:10;;;;;;;6.90;4.10;;;;;;;7.65;55.21;100672.70;105815;1282;61288;-92
2023/04/29 01:33:54;;;;;;;7.10;3.40;;;;;;;7.62;55.25;100673.32;106105;1282;74587;-94
2023/04/29 01:36:49;;;;;;;5.80;3.50;;;;;;;7.59;55.36;100678.48;105918;1283;71366;-94
2023/04/29 01:39:24;;;;;;;5.90;3.30;;;;;;;7.54;55.52;100688.84;105836;1282;73075;-94
2023/04/29 01:42:19;;;;;;;5.60;3.00;;;;;;;7.51;55.43;100685.91;105987;1280;60995;-93
2023/04/29 01:44:46;;;;;;;5.70;2.80;;;;;;;7.49;55.28;100693.78;106107;1281;61360;-95
2023/04/29 01:47:14;;;;;;;5.70;3.10;;;;;;;7.47;55.31;100698.00;105791;1282;74669;-95
2023/04/29 01:49:48;;;;;;;4.80;2.60;;;;;;;7.48;55.28;100699.23;105682;1282;72690;-94
2023/04/29 01:52:16;;;;;;;6.90;3.50;;;;;;;7.49;55.34;100698.34;105780;1282;73911;-93
2023/04/29 01:54:51;;;;;;;6.10;3.10;;;;;;;7.50;55.35;100696.08;106170;1281;62323;-94
2023/04/29 01:57:18;;;;;;;6.70;3.10;;;;;;;7.51;55.43;100694.89;105639;1280;60432;-93
2023/04/29 02:00:15;;;;;;;4.80;2.50;;;;;;;7.53;55.47;100697.26;105464;1289;75366;-93
2023/04/29 02:02:48;;;;;;;5.90;3.00;;;;;;;7.55;55.37;100701.88;105860;1282;72802;-94
2023/04/29 02:05:39;;;;;;;5.70;2.70;;;;;;;7.56;55.40;100704.39;105987;1282;73884;-94
2023/04/29 02:08:06;;;;;;;6.20;2.90;;;;;;;7.57;55.37;100706.35;105808;1281;60664;-94
2023/04/29 02:10:37;;;;;;;8.10;2.80;;;;;;;7.58;55.16;100704.49;106043;1282;60376;-94
2023/04/29 02:13:20;;;;;;;5.20;2.40;;;;;;;7.57;55.17;100700.38;105975;1281;73793;-93
2023/04/29 02:15:47;;;;;;;5.80;2.80;;;;;;;7.56;54.96;100702.52;105927;1282;74134;-94
2023/04/29 02:18:15;;;;;;;4.80;2.80;;;;;;;7.55;54.96;100699.91;105999;1285;73567;-94
2023/04/29 02:20:42;;;;;;;5.20;2.60;;;;;;;7.54;55.02;100704.73;105739;1283;60390;-94
2023/04/29 02:23:10;;;;;;;4.40;2.20;;;;;;;7.52;54.93;100709.73;105854;1280;60307;-93
2023/04/29 02:25:38;;;;;;;4.90;2.20;;;;;;;7.50;55.03;100711.09;105866;1281;74979;-93
2023/04/29 02:28:08;;;;;;;4.80;2.70;;;;;;;7.49;54.97;100715.25;106080;1281;73830;-94
2023/04/29 02:30:40;;;;;;;5.20;3.00;;;;;;;7.48;54.98;100717.48;105655;1284;71353;-93
2023/04/29 02:33:08;;;;;;;6.30;2.40;;;;;;;7.47;54.97;100711.40;105843;1282;62098;-94
2023/04/29 02:35:36;;;;;;;6.00;2.90;;;;;;;7.47;54.93;100713.50;106089;1282;60389;-93
2023/04/29 02:38:04;;;;;;;5.10;2.70;;;;;;;7.47;54.90;100714.36;105958;1282;74846;-94
2023/04/29 02:40:32;;;;;;;5.50;3.00;;;;;;;7.57;54.65;100714.98;106025;1287;71477;-93
2023/04/29 02:43:05;;;;;;;5.40;2.80;;;;;;;7.57;54.64;100717.23;105920;1282;74145;-94
2023/04/29 02:45:35;;;;;;;5.90;3.00;;;;;;;7.50;54.70;100721.07;105740;1283;60491;-94
2023/04/29 02:48:05;;;;;;;7.00;3.30;;;;;;;7.50;54.73;100722.71;105917;1281;61397;-94
2023/04/29 02:50:33;;;;;;;6.00;2.60;;;;;;;7.52;54.77;100725.09;106032;1282;75130;-92
2023/04/29 02:53:03;;;;;;;6.60;3.00;;;;;;;7.51;54.65;100728.63;105888;1282;74056;-94
2023/04/29 02:55:31;;;;;;;5.10;2.70;;;;;;;7.50;54.68;100733.84;105999;1281;72987;-94
2023/04/29 02:58:07;;;;;;;9.60;3.20;;;;;;;7.52;54.65;100741.36;105818;1282;61088;-94
2023/04/29 03:00:35;;;;;;;6.20;2.60;;;;;;;7.54;54.60;100738.23;105870;1282;60431;-93
2023/04/29 03:03:10;;;;;;;6.70;3.00;;;;;;;7.56;54.47;100743.83;105852;1282;74049;-93
2023/04/29 03:05:39;;;;;;;7.10;2.80;;;;;;;7.59;54.42;100745.30;106037;1282;73989;-93
2023/04/29 03:08:08;;;;;;;6.50;2.90;;;;;;;7.73;54.24;100748.10;106058;1285;74064;-93
2023/04/29 03:10:38;;;;;;;6.40;2.90;;;;;;;7.79;53.81;100747.42;105800;1288;60321;-93
2023/04/29 03:13:08;;;;;;;5.00;2.90;;;;;;;7.83;53.59;100751.60;106145;1283;61444;-93
2023/04/29 03:15:38;;;;;;;5.70;2.50;;;;;;;7.87;53.49;100755.25;105937;1282;73815;-94
2023/04/29 03:18:09;;;;;;;7.20;2.90;;;;;;;7.89;53.27;100763.16;106254;1282;72847;-95
2023/04/29 03:20:44;;;;;;;6.70;2.70;;;;;;;7.91;53.24;100765.55;106408;1282;72777;-95
2023/04/29 03:23:23;;;;;;;5.90;2.50;;;;;;;7.93;53.07;100766.83;106070;1281;61237;-93
2023/04/29 03:25:54;;;;;;;5.20;2.40;;;;;;;7.96;52.96;100767.90;106155;1281;61613;-94
2023/04/29 03:28:24;;;;;;;6.00;2.70;;;;;;;8.00;52.80;100770.36;106150;1282;76285;-95
2023/04/29 03:30:53;;;;;;;5.10;2.90;;;;;;;8.06;52.72;100769.59;105996;1281;73941;-94
2023/04/29 03:33:37;;;;;;;5.70;2.80;;;;;;;8.11;52.44;100768.85;106200;1281;71376;-94
2023/04/29 03:36:05;;;;;;;6.30;3.10;;;;;;;8.06;52.40;100773.25;106309;1282;60768;-93
2023/04/29 03:38:50;;;;;;;4.50;2.40;;;;;;;8.07;52.24;100772.33;106039;1282;60419;-95
2023/04/29 03:41:22;;;;;;;5.70;2.80;;;;;;;8.12;52.13;100777.31;105813;1281;73748;-94
2023/04/29 03:43:50;;;;;;;5.60;2.70;;;;;;;8.17;51.93;100777.68;105768;1282;74014;-94
2023/04/29 03:46:22;;;;;;;4.70;2.80;;;;;;;8.24;51.90;100778.25;106141;1281;73038;-95
2023/04/29 03:48:56;;;;;;;7.40;3.10;;;;;;;8.30;51.59;100783.63;106252;1281;59450;-94
2023/04/29 03:51:32;;;;;;;5.30;2.60;;;;;;;8.35;51.36;100783.69;106235;1281;60360;-94
2023/04/29 04:02:11;;;;;;;4.90;2.80;;;;;;;8.60;50.55;100784.29;106846;1279;71355;-95
2023/04/29 04:04:40;;;;;;;4.80;2.80;;;;;;;8.64;50.37;100785.39;106397;1279;60828;-94
2023/04/29 04:07:10;;;;;;;7.20;3.10;;;;;;;8.70;50.10;100789.80;106320;1279;60345;-94
2023/04/29 04:09:58;;;;;;;5.20;2.80;;;;;;;8.77;49.92;100792.80;106091;1279;73864;-92
2023/04/29 04:12:26;;;;;;;7.10;3.30;;;;;;;8.81;49.82;100797.84;106275;1282;72498;-94
2023/04/29 04:15:00;;;;;;;5.50;3.20;;;;;;;8.86;49.81;100798.25;105909;1282;74303;-93
2023/04/29 04:17:28;;;;;;;4.80;2.60;;;;;;;8.92;49.53;100795.80;105738;1283;61114;-93
2023/04/29 04:19:55;;;;;;;5.20;2.80;;;;;;;8.97;49.21;100788.84;105864;1282;61437;-93
2023/04/29 04:22:23;;;;;;;5.60;2.80;;;;;;;9.02;49.29;100791.13;105903;1282;73888;-94
2023/04/29 04:25:09;;;;;;;5.30;2.60;;;;;;;9.10;49.07;100797.10;106013;1282;73779;-94
2023/04/29 04:27:36;;;;;;;5.60;2.60;;;;;;;9.14;48.77;100796.59;105946;1283;73992;-93
2023/04/29 04:30:07;;;;;;;4.80;2.70;;;;;;;9.19;48.67;100798.05;105881;1279;60679;-92
2023/04/29 04:32:34;;;;;;;5.30;2.80;;;;;;;9.23;48.13;100797.73;106088;1279;61623;-95
2023/04/29 04:35:07;;;;;;;6.00;2.40;;;;;;;9.27;48.00;100801.12;106228;1279;74980;-96
2023/04/29 04:37:37;;;;;;;6.10;2.60;;;;;;;9.32;47.90;100800.67;106211;1279;72062;-94
2023/04/29 04:40:10;;;;;;;6.40;2.60;;;;;;;9.38;47.65;100804.23;106081;1282;72039;-94
2023/04/29 04:42:59;;;;;;;5.10;2.40;;;;;;;9.45;46.88;100801.13;106669;1279;59508;-93
2023/04/29 04:45:28;;;;;;;7.90;3.10;;;;;;;9.50;46.59;100799.29;106216;1279;60827;-94
2023/04/29 04:47:55;;;;;;;7.10;2.60;;;;;;;9.57;46.77;100798.39;106136;1279;73667;-92
2023/04/29 04:50:29;;;;;;;5.70;2.80;;;;;;;9.68;46.65;100800.03;106530;1279;72599;-93
2023/04/29 04:52:56;;;;;;;5.70;2.60;;;;;;;9.79;46.46;100801.86;106160;1279;72763;-92
2023/04/29 04:55:49;;;;;;;4.60;2.20;;;;;;;9.90;45.97;100799.96;106213;1279;60605;-96
2023/04/29 04:58:18;;;;;;;4.80;2.50;;;;;;;9.98;45.45;100802.18;106307;1279;60399;-93
2023/04/29 05:00:48;;;;;;;5.00;2.30;;;;;;;10.08;45.52;100800.16;106086;1279;73958;-93
2023/04/29 05:03:17;;;;;;;4.20;2.10;;;;;;;10.17;45.09;100801.92;106349;1285;71878;-94
2023/04/29 05:05:56;;;;;;;4.80;2.10;;;;;;;10.28;44.71;100798.71;105906;1280;72727;-92
2023/04/29 05:08:24;;;;;;;4.60;2.00;;;;;;;10.42;44.39;100796.48;106124;1279;60459;-93
2023/04/29 05:10:52;;;;;;;5.30;2.20;;;;;;;10.52;43.48;100796.65;106144;1279;59883;-93
2023/04/29 05:13:21;;;;;;;6.30;1.90;;;;;;;10.64;43.11;100798.60;105993;1281;74822;-93
2023/04/29 05:15:48;;;;;;;3.70;2.10;;;;;;;10.78;43.12;100804.09;106061;1279;74158;-92
2023/04/29 05:18:20;;;;;;;4.90;2.10;;;;;;;10.91;42.78;100798.50;106332;1279;72834;-92
2023/04/29 05:20:49;;;;;;;4.30;1.70;;;;;;;11.06;42.18;100798.57;106128;1279;59614;-92
2023/04/29 05:23:17;;;;;;;4.00;1.70;;;;;;;11.19;41.63;100792.80;106156;1280;59938;-94
2023/04/29 05:25:45;;;;;;;3.80;1.70;;;;;;;11.33;41.17;100795.48;106250;1279;73917;-95
2023/04/29 05:28:14;;;;;;;3.90;2.20;;;;;;;11.47;40.85;100798.11;98674;1285;10001377;-91
2023/04/29 05:30:42;;;;;;;4.50;1.90;;;;;;;11.59;40.06;100796.63;98685;1279;10001454;-94
2023/04/29 05:33:10;;;;;;;5.00;1.90;;;;;;;11.72;39.84;100798.85;106253;1279;73960;-92
2023/04/29 05:35:39;;;;;;;4.80;1.80;;;;;;;11.87;39.12;100791.52;105951;1283;71265;-92
2023/04/29 05:38:08;;;;;;;3.30;1.40;;;;;;;12.11;38.41;100791.00;106161;1279;60423;-90
2023/04/29 05:40:39;;;;;;;2.80;1.30;;;;;;;12.25;37.69;100791.43;106259;1279;61532;-91
2023/04/29 05:43:37;;;;;;;3.90;1.20;;;;;;;12.41;37.40;100796.10;106057;1280;75111;-93
2023/04/29 05:46:05;;;;;;;3.30;1.40;;;;;;;12.55;37.09;100794.00;106069;1279;71806;-93
2023/04/29 05:48:32;;;;;;;3.60;1.30;;;;;;;12.63;36.46;100790.64;106172;1280;72817;-93
2023/04/29 05:51:00;;;;;;;3.40;1.30;;;;;;;12.66;36.47;100791.08;106250;1279;60424;-95
2023/04/29 05:53:28;;;;;;;3.20;1.30;;;;;;;12.84;35.42;100790.67;106007;1283;61344;-93
2023/04/29 05:55:56;;;;;;;3.40;1.40;;;;;;;12.90;33.97;100788.66;106104;1281;75075;-90
2023/04/29 05:58:24;;;;;;;2.50;1.20;;;;;;;13.02;33.17;100790.70;106077;1283;72962;-95
2023/04/29 06:00:51;;;;;;;3.80;1.60;;;;;;;13.22;32.35;100791.80;106337;1279;72456;-92
2023/04/29 06:03:22;;;;;;;4.50;1.70;;;;;;;13.29;32.37;100787.79;106355;1279;60417;-94
2023/04/29 06:06:14;;;;;;;4.60;1.80;;;;;;;13.30;31.72;100786.49;106069;1283;61391;-92
2023/04/29 06:09:01;;;;;;;4.30;1.50;;;;;;;13.37;30.89;100781.98;106584;1279;73866;-95
2023/04/29 06:11:31;;;;;;;3.10;1.30;;;;;;;13.40;30.86;100784.71;107127;1279;70939;-89
2023/04/29 06:14:02;;;;;;;3.50;1.20;;;;;;;13.47;30.61;100788.41;107376;1279;72559;-94
2023/04/29 06:16:30;;;;;;;2.40;0.90;;;;;;;13.57;30.43;100786.85;107255;1283;60147;-93
2023/04/29 06:18:59;;;;;;;2.30;1.00;;;;;;;13.59;29.53;100788.35;107412;1280;59310;-91
2023/04/29 06:21:31;;;;;;;2.30;1.00;;;;;;;13.55;29.56;100784.23;107321;1282;73897;-93
2023/04/29 06:24:23;;;;;;;2.70;1.10;;;;;;;13.48;30.10;100786.91;107324;1282;72753;-91
2023/04/29 06:27:03;;;;;;;2.80;1.20;;;;;;;13.55;30.89;100794.14;107252;1279;73001;-91
2023/04/29 06:29:38;;;;;;;2.70;0.90;;;;;;;13.82;30.52;100793.29;106865;1279;179556;-94
2023/04/29 06:32:18;;;;;;;2.70;1.10;;;;;;;14.00;30.34;100793.93;107317;1283;60398;-93
2023/04/29 06:34:58;;;;;;;3.30;1.10;;;;;;;13.94;29.82;100785.52;107154;1279;73849;-93
2023/04/29 06:37:34;;;;;;;3.50;1.10;;;;;;;13.98;30.12;100796.80;106810;1279;71802;-93
2023/04/29 06:40:29;;;;;;;2.40;1.10;;;;;;;14.10;30.16;100795.83;106789;1278;72682;-90
2023/04/29 06:43:18;;;;;;;3.90;1.00;;;;;;;14.22;29.67;100791.00;107060;1279;60247;-89
2023/04/29 06:46:20;;;;;;;2.70;1.00;;;;;;;14.36;29.35;100793.40;106817;1283;60015;-94
2023/04/29 06:49:10;;;;;;;3.40;1.10;;;;;;;14.52;28.46;100790.88;107014;1282;75066;-93
2023/04/29 06:51:38;;;;;;;2.70;1.20;;;;;;;14.50;28.26;100787.30;107218;1281;72889;-92
2023/04/29 06:54:07;;;;;;;1.70;0.90;;;;;;;14.56;28.30;100792.69;107015;1279;72452;-93
2023/04/29 06:57:03;;;;;;;2.40;0.90;;;;;;;14.56;27.55;100787.32;107209;1284;60446;-92
2023/04/29 06:59:31;;;;;;;2.60;0.90;;;;;;;14.40;27.54;100787.70;107319;1279;60421;-92
2023/04/29 07:01:59;;;;;;;2.30;1.00;;;;;;;14.30;27.72;100788.98;107169;1279;73837;-92
2023/04/29 07:04:26;;;;;;;3.30;0.90;;;;;;;14.26;27.34;100791.79;107203;1279;71527;-90
2023/04/29 07:06:58;;;;;;;2.70;1.10;;;;;;;14.31;27.13;100794.50;107231;1279;72696;-93
2023/04/29 07:09:34;;;;;;;2.10;0.90;;;;;;;14.38;26.80;100791.25;106824;1280;60344;-92
2023/04/29 07:12:04;;;;;;;4.30;1.20;;;;;;;14.38;27.34;100791.73;106506;1280;61049;-91
2023/04/29 07:14:31;;;;;;;3.20;1.10;;;;;;;14.35;27.03;100796.43;106174;1285;73859;-90
2023/04/29 07:16:58;;;;;;;2.40;1.10;;;;;;;14.37;25.83;100794.59;107068;1279;73578;-92
2023/04/29 07:19:28;;;;;;;2.40;0.90;;;;;;;14.43;25.30;100797.19;106820;1279;73803;-92
2023/04/29 07:21:57;;;;;;;2.50;1.20;;;;;;;14.45;25.55;100794.60;106810;1282;59878;-93
2023/04/29 07:24:46;;;;;;;3.20;1.10;;;;;;;14.52;25.88;100796.04;106507;1280;60482;-93
2023/04/29 07:27:15;;;;;;;4.00;1.10;;;;;;;14.55;26.48;100797.32;106324;1280;74784;-89
2023/04/29 07:29:42;;;;;;;2.50;1.20;;;;;;;14.55;27.10;100802.00;106772;1279;71695;-92
2023/04/29 07:32:09;;;;;;;3.30;1.10;;;;;;;14.65;27.08;100803.13;106841;1279;72536;-92
2023/04/29 07:34:39;;;;;;;6.90;1.40;;;;;;;14.81;26.94;100805.60;106662;1280;60668;-92
2023/04/29 07:37:07;;;;;;;2.60;1.00;;;;;;;14.94;26.22;100800.35;106272;1279;61561;-94
2023/04/29 07:39:35;;;;;;;2.70;1.10;;;;;;;14.96;25.79;100799.48;106919;1282;73901;-93
2023/04/29 07:42:04;;;;;;;3.80;1.00;;;;;;;14.98;25.72;100794.41;106573;1279;70617;-94
2023/04/29 07:44:38;;;;;;;3.70;1.10;;;;;;;15.02;25.91;100793.78;106277;1280;74041;-93
2023/04/29 07:47:07;;;;;;;2.90;1.40;;;;;;;15.07;26.37;100795.58;106086;1279;60252;-92
2023/04/29 07:49:47;;;;;;;2.10;1.20;;;;;;;15.10;27.05;100789.27;106656;1280;60654;-94
2023/04/29 07:52:32;;;;;;;3.40;1.30;;;;;;;15.21;27.62;100790.08;105995;1279;72509;-92
2023/04/29 07:55:01;;;;;;;4.40;1.20;;;;;;;15.36;27.16;100792.59;105860;1282;72141;-92
2023/04/29 07:57:29;;;;;;;3.30;1.10;;;;;;;15.49;26.72;100783.97;105878;1283;73652;-90
2023/04/29 07:59:56;;;;;;;2.40;0.90;;;;;;;15.52;25.84;100781.89;105914;1283;61025;-91
2023/04/29 08:02:23;;;;;;;3.20;1.30;;;;;;;15.49;26.16;100784.72;105978;1283;60860;-94
2023/04/29 08:04:50;;;;;;;2.10;1.00;;;;;;;15.52;26.65;100784.16;106054;1282;72941;-92
2023/04/29 08:07:23;;;;;;;2.50;1.00;;;;;;;15.56;26.40;100779.22;106000;1279;72565;-91
2023/04/29 08:09:50;;;;;;;3.80;1.20;;;;;;;15.56;26.26;100777.01;106006;1283;73595;-90
2023/04/29 08:12:20;;;;;;;3.70;1.10;;;;;;;15.54;26.20;100768.95;105941;1280;61590;-89
2023/04/29 08:14:47;;;;;;;2.60;1.00;;;;;;;15.52;25.63;100776.95;106035;1279;60797;-91
2023/04/29 08:17:16;;;;;;;3.60;1.10;;;;;;;15.45;25.43;100772.54;106059;1281;73847;-96
2023/04/29 08:19:45;;;;;;;3.50;1.00;;;;;;;15.39;25.74;100772.23;106136;1282;72684;-93
2023/04/29 08:22:13;;;;;;;4.80;1.20;;;;;;;15.38;25.60;100773.90;106073;1281;70535;-93
2023/04/29 08:25:42;;;;;;;3.40;1.20;;;;;;;15.48;26.25;100772.57;105993;1283;60594;-91
2023/04/29 08:28:10;;;;;;;2.10;0.80;;;;;;;15.52;26.00;100773.45;106234;1281;60012;-92
2023/04/29 08:30:45;;;;;;;5.70;1.20;;;;;;;15.55;26.48;100770.30;106164;1285;74955;-95
2023/04/29 08:33:16;;;;;;;3.10;1.00;;;;;;;15.73;26.66;100767.29;106256;1280;74048;-89
2023/04/29 08:35:44;;;;;;;4.40;1.10;;;;;;;15.85;26.48;100760.19;106031;1279;72709;-92
2023/04/29 08:38:11;;;;;;;3.00;1.00;;;;;;;15.85;25.63;100759.02;106167;1279;60545;-91
2023/04/29 08:40:42;;;;;;;3.30;1.20;;;;;;;15.78;25.98;100773.91;106386;1280;60777;-93
2023/04/29 08:43:16;;;;;;;2.30;1.00;;;;;;;15.81;25.95;100765.36;106355;1280;73698;-91
2023/04/29 08:45:45;;;;;;;2.50;0.90;;;;;;;15.82;26.31;100771.81;106205;1280;73744;-94
2023/04/29 08:48:14;;;;;;;2.20;0.90;;;;;;;15.86;26.00;100767.17;106252;1279;72577;-91
2023/04/29 08:50:41;;;;;;;2.10;0.80;;;;;;;15.96;25.88;100761.68;106086;1285;60672;-92
2023/04/29 08:53:10;;;;;;;4.10;1.20;;;;;;;16.03;25.66;100766.06;106013;1281;59831;-94
2023/04/29 08:55:42;;;;;;;2.30;1.10;;;;;;;16.12;25.45;100769.36;106060;1279;72154;-89
2023/04/29 08:58:11;;;;;;;3.30;1.20;;;;;;;16.18;25.08;100770.84;106166;1279;73822;-90
2023/04/29 09:00:39;;;;;;;3.00;1.00;;;;;;;16.22;25.38;100771.71;106113;1282;73788;-88
2023/04/29 09:03:30;;;;;;;4.00;1.30;;;;;;;16.33;25.62;100772.15;106107;1282;61592;-88
2023/04/29 09:05:59;;;;;;;2.10;1.10;;;;;;;16.50;25.34;100769.88;106189;1282;60469;-91
2023/04/29 09:08:26;;;;;;;2.10;1.00;;;;;;;16.53;24.85;100765.25;106148;1280;72594;-92
2023/04/29 09:10:53;;;;;;;2.50;0.90;;;;;;;16.51;25.53;100762.36;106076;1281;73951;-90
2023/04/29 09:13:28;;;;;;;1.80;0.80;;;;;;;16.56;25.93;100759.60;106130;1280;71584;-91
2023/04/29 09:15:55;;;;;;;3.40;0.80;;;;;;;16.60;25.71;100756.25;106146;1280;61472;-93
2023/04/29 09:18:41;;;;;;;2.80;0.90;;;;;;;16.63;24.74;100755.99;106071;1280;60421;-91
2023/04/29 09:21:17;;;;;;;2.20;1.00;;;;;;;16.58;24.52;100756.66;106153;1279;74939;-89
2023/04/29 09:23:55;;;;;;;3.00;1.00;;;;;;;16.54;24.77;100753.48;106122;1282;71590;-92
2023/04/29 09:26:23;;;;;;;2.10;0.90;;;;;;;16.55;24.49;100753.30;106209;1280;71023;-90
2023/04/29 09:29:06;;;;;;;3.90;1.30;;;;;;;16.58;24.54;100751.00;105942;1283;60805;-90
2023/04/29 09:31:32;;;;;;;2.30;1.20;;;;;;;16.63;24.54;100755.07;106266;1279;60448;-91
2023/04/29 09:33:59;;;;;;;2.90;1.20;;;;;;;16.64;24.73;100748.52;106220;1279;75114;-90
2023/04/29 09:36:44;;;;;;;4.40;0.80;;;;;;;16.63;25.02;100757.34;106120;1280;72703;-93
2023/04/29 09:39:52;;;;;;;1.60;1.00;;;;;;;16.75;24.79;100749.47;106455;1282;73075;-95
2023/04/29 09:42:20;;;;;;;2.80;1.30;;;;;;;16.83;24.92;100749.95;106000;1282;60464;-93
2023/04/29 09:44:47;;;;;;;3.20;1.30;;;;;;;16.78;25.23;100745.34;105606;1283;60835;-94
2023/04/29 09:47:16;;;;;;;2.80;1.00;;;;;;;16.76;24.77;100746.83;105875;1283;73996;-93
2023/04/29 09:49:44;;;;;;;2.00;0.90;;;;;;;16.75;24.85;100742.28;106072;1283;71030;-93
2023/04/29 09:52:15;;;;;;;3.10;0.90;;;;;;;16.78;24.23;100747.00;106393;1283;71711;-93
2023/04/29 09:54:44;;;;;;;2.60;0.80;;;;;;;16.82;24.33;100739.05;106605;1280;60954;-94
2023/04/29 09:57:24;;;;;;;2.80;1.10;;;;;;;16.88;24.44;100736.70;106225;1280;60399;-95
2023/04/29 09:59:53;;;;;;;2.20;0.90;;;;;;;16.84;23.96;100726.30;106194;1280;73828;-95
2023/04/29 10:02:24;;;;;;;2.20;0.90;;;;;;;16.83;24.30;100726.95;106065;1283;72236;-95
2023/04/29 10:04:53;;;;;;;3.00;1.30;;;;;;;16.89;23.49;100724.13;105728;1283;72919;-95
2023/04/29 10:07:21;;;;;;;3.70;1.10;;;;;;;16.89;24.39;100725.79;106060;1283;61642;-92
2023/04/29 10:09:49;;;;;;;3.90;1.30;;;;;;;16.94;23.74;100725.56;106149;1281;59479;-93
2023/04/29 10:12:19;;;;;;;2.00;1.00;;;;;;;17.01;24.16;100720.95;105953;1283;74003;-91
2023/04/29 10:14:56;;;;;;;2.70;1.10;;;;;;;17.09;24.27;100722.60;106020;1286;72918;-93
2023/04/29 10:17:41;;;;;;;2.90;0.90;;;;;;;17.04;23.78;100719.53;105962;1283;73382;-92
2023/04/29 10:20:08;;;;;;;3.70;1.10;;;;;;;17.01;23.96;100718.68;106231;1283;60465;-92
2023/04/29 10:22:42;;;;;;;3.40;1.20;;;;;;;17.00;25.11;100719.30;106201;1283;60530;-92
2023/04/29 10:25:20;;;;;;;2.30;1.00;;;;;;;17.03;24.82;100714.11;106063;1283;73695;-92
2023/04/29 10:27:47;;;;;;;2.30;1.10;;;;;;;17.05;24.73;100709.33;105814;1283;72850;-93
2023/04/29 10:30:19;;;;;;;2.70;1.10;;;;;;;17.11;24.70;100705.55;105924;1283;71891;-95
2023/04/29 10:32:49;;;;;;;2.30;1.10;;;;;;;17.24;25.08;100704.84;106183;1287;60479;-92
2023/04/29 10:35:23;;;;;;;1.70;1.00;;;;;;;17.36;23.69;100705.33;106345;1285;60348;-91
2023/04/29 10:37:56;;;;;;;2.40;1.20;;;;;;;17.32;23.32;100709.77;106257;1281;73566;-93
2023/04/29 10:40:31;;;;;;;4.00;1.10;;;;;;;17.25;23.86;100706.23;105881;1282;72695;-93
2023/04/29 10:42:58;;;;;;;2.30;1.00;;;;;;;17.20;24.22;100706.80;106202;1280;72382;-93
2023/04/29 10:45:34;;;;;;;2.00;1.10;;;;;;;17.16;23.78;100699.91;106202;1285;60472;-94
2023/04/29 10:48:05;;;;;;;3.50;1.10;;;;;;;17.16;23.57;100700.08;106369;1280;60196;-90
2023/04/29 10:50:36;;;;;;;3.70;1.20;;;;;;;17.30;24.04;100690.48;106198;1283;74696;-92
2023/04/29 10:53:04;;;;;;;2.30;1.00;;;;;;;17.40;24.35;100691.05;106109;1282;72812;-94
2023/04/29 10:55:37;;;;;;;3.90;1.40;;;;;;;17.47;24.16;100690.91;105707;1283;71514;-94
2023/04/29 10:58:25;;;;;;;3.30;1.10;;;;;;;17.38;23.67;100694.55;106099;1281;60599;-94
2023/04/29 11:00:53;;;;;;;2.70;1.30;;;;;;;17.28;23.58;100685.50;106187;1282;60121;-94
2023/04/29 11:03:54;;;;;;;2.80;1.10;;;;;;;17.20;24.12;100679.55;105994;1285;74671;-94
2023/04/29 11:06:27;;;;;;;3.00;1.10;;;;;;;17.28;24.72;100681.34;105968;1286;74063;-94
2023/04/29 11:09:01;;;;;;;3.60;1.50;;;;;;;17.42;24.25;100675.83;106136;1285;72610;-92
2023/04/29 11:11:54;;;;;;;2.50;1.20;;;;;;;17.52;24.66;100679.14;106267;1283;60432;-95
2023/04/29 11:14:25;;;;;;;3.70;1.20;;;;;;;17.60;24.73;100671.96;106242;1283;59381;-92
2023/04/29 11:16:56;;;;;;;3.70;1.20;;;;;;;17.64;24.13;100675.90;106377;1283;72860;-93
2023/04/29 11:19:30;;;;;;;2.60;1.10;;;;;;;17.68;24.00;100676.08;106164;1283;71119;-94
2023/04/29 11:22:22;;;;;;;2.50;1.00;;;;;;;17.71;24.32;100671.27;106221;1280;72572;-93
2023/04/29 11:24:59;;;;;;;4.00;1.10;;;;;;;17.69;23.82;100675.52;106421;1285;60403;-94
2023/04/29 11:27:37;;;;;;;2.60;0.90;;;;;;;17.73;23.87;100676.77;106299;1285;59754;-92
2023/04/29 11:30:07;;;;;;;2.60;0.90;;;;;;;17.68;23.59;100667.16;106317;1280;73879;-91
2023/04/29 11:32:39;;;;;;;2.30;0.90;;;;;;;17.63;23.43;100664.73;106253;1283;72510;-94
2023/04/29 11:35:15;;;;;;;2.70;1.10;;;;;;;17.59;23.66;100665.98;106203;1284;72653;-91
2023/04/29 11:37:44;;;;;;;3.20;1.30;;;;;;;17.66;23.83;100667.90;106453;1285;60389;-92
2023/04/29 11:40:12;;;;;;;2.70;1.00;;;;;;;17.77;23.50;100668.55;106000;1283;61675;-95
2023/04/29 11:42:47;;;;;;;2.80;1.10;;;;;;;17.81;22.84;100664.33;106080;1287;73906;-93
2023/04/29 11:45:31;;;;;;;4.00;1.90;;;;;;;17.81;24.02;100660.80;106096;1283;72862;-92
2023/04/29 11:48:04;;;;;;;2.80;1.20;;;;;;;17.82;25.06;100660.52;105873;1286;72834;-91
2023/04/29 11:50:32;;;;;;;3.50;1.30;;;;;;;17.82;24.91;100657.49;106334;1283;60448;-95
2023/04/29 11:53:01;;;;;;;3.30;1.20;;;;;;;17.83;25.36;100647.32;105945;1282;60254;-93
2023/04/29 11:55:28;;;;;;;5.30;1.00;;;;;;;17.88;25.09;100638.15;106195;1285;72763;-93